createdAt,value
2017-06-12T00:00:29.439Z,65.10
2017-06-12T00:02:56.597Z,64.40
2017-06-12T00:05:23.534Z,65.30
2017-06-12T00:07:51.553Z,64.80
2017-06-12T00:10:17.767Z,64.50
2017-06-12T00:12:43.950Z,64.20
2017-06-12T00:15:10.382Z,64.20
2017-06-12T00:17:37.111Z,63.40
2017-06-12T00:20:03.419Z,62.50
2017-06-12T00:22:31.991Z,62.10
2017-06-12T00:24:58.289Z,61.70
2017-06-12T00:27:25.669Z,62.00
2017-06-12T00:29:51.968Z,62.10
2017-06-12T00:32:20.701Z,63.00
2017-06-12T00:34:47.695Z,62.10
2017-06-12T00:37:14.037Z,62.10
2017-06-12T00:39:40.977Z,62.20
2017-06-12T00:42:07.172Z,60.80
2017-06-12T00:44:33.482Z,61.50
2017-06-12T00:46:59.948Z,60.90
2017-06-12T00:49:26.200Z,61.10
2017-06-12T00:51:52.382Z,60.00
2017-06-12T00:54:18.662Z,60.30
2017-06-12T00:56:44.845Z,59.60
2017-06-12T00:59:11.003Z,59.70
2017-06-12T01:01:37.215Z,60.30
2017-06-12T01:04:03.393Z,60.30
2017-06-12T01:06:29.595Z,60.10
2017-06-12T01:08:55.802Z,60.60
2017-06-12T01:11:21.973Z,60.80
2017-06-12T01:13:48.907Z,61.60
2017-06-12T01:16:15.921Z,62.70
2017-06-12T01:18:42.124Z,61.70
2017-06-12T01:21:08.276Z,62.30
2017-06-12T01:23:34.394Z,63.00
2017-06-12T01:26:00.588Z,64.10
2017-06-12T01:28:26.738Z,64.00
2017-06-12T01:30:52.964Z,64.30
2017-06-12T01:33:19.510Z,64.00
2017-06-12T01:35:46.544Z,64.10
2017-06-12T01:38:13.450Z,64.20
2017-06-12T01:40:40.400Z,64.60
2017-06-12T01:43:07.373Z,63.90
2017-06-12T01:45:33.631Z,63.90
2017-06-12T01:47:59.806Z,64.50
2017-06-12T01:50:26.766Z,64.50
2017-06-12T01:52:52.970Z,63.90
2017-06-12T01:55:19.948Z,63.90
2017-06-12T01:57:46.178Z,63.50
2017-06-12T02:00:12.414Z,63.70
2017-06-12T02:02:38.615Z,62.60
2017-06-12T02:05:05.655Z,63.20
2017-06-12T02:07:32.586Z,63.20
2017-06-12T02:09:58.747Z,62.60
2017-06-12T02:12:24.990Z,62.40
2017-06-12T02:14:51.165Z,62.50
2017-06-12T02:17:18.054Z,62.60
2017-06-12T02:19:44.234Z,62.30
2017-06-12T02:22:10.487Z,62.40
2017-06-12T02:24:37.474Z,63.20
2017-06-12T02:27:03.665Z,62.60
2017-06-12T02:29:30.640Z,64.10
2017-06-12T02:31:56.814Z,62.80
2017-06-12T02:34:22.973Z,63.00
2017-06-12T02:36:49.965Z,63.80
2017-06-12T02:39:16.155Z,63.70
2017-06-12T02:41:43.913Z,63.20
2017-06-12T02:44:10.840Z,64.20
2017-06-12T02:46:37.033Z,63.80
2017-06-12T02:49:03.191Z,64.30
2017-06-12T02:51:29.414Z,64.60
2017-06-12T02:53:55.558Z,64.50
2017-06-12T02:56:22.448Z,64.10
2017-06-12T02:58:48.611Z,64.50
2017-06-12T03:01:14.796Z,64.20
2017-06-12T03:03:40.965Z,64.50
2017-06-12T03:06:07.138Z,64.70
2017-06-12T03:08:33.319Z,65.10
2017-06-12T03:10:59.501Z,64.60
2017-06-12T03:13:25.651Z,64.90
2017-06-12T03:15:51.867Z,64.50
2017-06-12T03:18:18.027Z,64.40
2017-06-12T03:20:44.234Z,64.50
2017-06-12T03:23:10.459Z,64.80
2017-06-12T03:25:36.650Z,64.50
2017-06-12T03:28:03.606Z,65.00
2017-06-12T03:30:29.813Z,64.50
2017-06-12T03:32:55.980Z,64.80
2017-06-12T03:35:22.158Z,64.20
2017-06-12T03:37:48.346Z,64.60
2017-06-12T03:40:14.615Z,64.30
2017-06-12T03:42:40.846Z,64.80
2017-06-12T03:45:07.127Z,64.70
2017-06-12T03:47:33.296Z,64.80
2017-06-12T03:49:59.522Z,64.70
2017-06-12T03:52:25.686Z,65.20
2017-06-12T03:54:51.883Z,65.20
2017-06-12T03:57:18.085Z,64.70
2017-06-12T03:59:44.300Z,64.80
2017-06-12T04:02:10.486Z,65.00
2017-06-12T04:04:37.462Z,66.20
2017-06-12T04:07:03.730Z,65.80
2017-06-12T04:09:29.957Z,65.60
2017-06-12T04:11:56.595Z,65.40
2017-06-12T04:14:23.540Z,65.30
2017-06-12T04:16:49.941Z,65.30
2017-06-12T04:19:16.355Z,65.20
2017-06-12T04:21:42.884Z,65.30
2017-06-12T04:24:09.776Z,65.20
2017-06-12T04:26:35.950Z,64.30
2017-06-12T04:29:02.840Z,64.00
2017-06-12T04:31:28.991Z,62.50
2017-06-12T04:33:55.930Z,61.50
2017-06-12T04:36:22.114Z,61.10
2017-06-12T04:38:48.350Z,61.80
2017-06-12T04:41:14.522Z,62.30
2017-06-12T04:43:40.676Z,61.80
2017-06-12T04:46:07.280Z,61.20
2017-06-12T04:48:33.466Z,62.10
2017-06-12T04:50:59.986Z,61.90
2017-06-12T04:53:26.922Z,62.90
2017-06-12T04:55:53.896Z,64.00
2017-06-12T04:58:20.046Z,62.30
2017-06-12T05:00:46.261Z,61.10
2017-06-12T05:03:12.454Z,60.50
2017-06-12T05:05:39.657Z,60.70
2017-06-12T05:08:05.827Z,60.60
2017-06-12T05:10:32.794Z,61.40
2017-06-12T05:12:59.716Z,59.50
2017-06-12T05:15:25.871Z,58.70
2017-06-12T05:17:52.778Z,58.70
2017-06-12T05:20:18.974Z,58.40
2017-06-12T05:22:45.172Z,59.20
2017-06-12T05:25:12.094Z,60.20
2017-06-12T05:27:38.664Z,59.50
2017-06-12T05:30:05.242Z,59.30
2017-06-12T05:32:31.450Z,59.30
2017-06-12T05:34:58.429Z,58.60
2017-06-12T05:37:24.623Z,58.30
2017-06-12T05:39:50.863Z,58.40
2017-06-12T05:42:17.014Z,58.90
2017-06-12T05:44:43.203Z,56.40
2017-06-12T05:47:09.395Z,53.10
2017-06-12T05:49:36.289Z,55.60
2017-06-12T05:52:02.533Z,54.10
2017-06-12T05:54:28.732Z,53.00
2017-06-12T05:57:09.829Z,53.40
2017-06-12T05:59:36.006Z,54.40
2017-06-12T06:02:02.939Z,53.00
2017-06-12T06:04:29.100Z,52.10
2017-06-12T06:06:55.322Z,50.30
2017-06-12T06:09:21.551Z,47.70
2017-06-12T06:11:47.761Z,47.70
2017-06-12T06:14:14.680Z,48.50
2017-06-12T06:16:40.879Z,47.90
2017-06-12T06:19:07.080Z,49.10
2017-06-12T06:21:33.981Z,46.00
2017-06-12T06:24:00.200Z,47.80
2017-06-12T06:26:26.326Z,48.40
2017-06-12T06:28:52.484Z,48.40
2017-06-12T06:31:18.659Z,47.80
2017-06-12T06:33:44.844Z,48.80
2017-06-12T06:36:11.791Z,49.50
2017-06-12T06:38:38.690Z,49.50
2017-06-12T06:41:04.854Z,48.90
2017-06-12T06:43:31.042Z,47.20
2017-06-12T06:45:57.200Z,47.20
2017-06-12T06:48:23.527Z,48.80
2017-06-12T06:50:50.119Z,48.10
2017-06-12T06:53:16.347Z,47.40
2017-06-12T06:55:42.572Z,47.10
2017-06-12T06:58:08.774Z,47.60
2017-06-12T07:00:35.713Z,48.30
2017-06-12T07:03:01.892Z,48.30
2017-06-12T07:05:28.023Z,46.50
2017-06-12T07:07:54.146Z,46.30
2017-06-12T07:10:20.361Z,46.70
2017-06-12T07:12:46.544Z,44.00
2017-06-12T07:15:12.755Z,42.30
2017-06-12T07:17:38.938Z,43.80
2017-06-12T07:20:20.074Z,41.50
2017-06-12T07:22:46.241Z,40.60
2017-06-12T07:25:12.427Z,38.30
2017-06-12T07:27:38.615Z,38.00
2017-06-12T07:30:04.854Z,38.50
2017-06-12T07:32:31.062Z,36.90
2017-06-12T07:34:57.234Z,37.70
2017-06-12T07:37:23.436Z,38.50
2017-06-12T07:39:49.642Z,37.80
2017-06-12T07:42:15.843Z,38.70
2017-06-12T07:44:42.051Z,38.80
2017-06-12T07:47:08.241Z,38.70
2017-06-12T07:49:34.462Z,39.10
2017-06-12T07:52:00.639Z,38.70
2017-06-12T07:54:26.831Z,39.00
2017-06-12T07:56:53.060Z,38.30
2017-06-12T07:59:19.288Z,34.70
2017-06-12T08:01:45.527Z,34.80
2017-06-12T08:04:11.725Z,32.70
2017-06-12T08:06:37.929Z,31.60
2017-06-12T08:09:04.161Z,32.00
2017-06-12T08:11:31.080Z,32.10
2017-06-12T08:13:57.264Z,30.20
2017-06-12T08:16:23.462Z,30.90
2017-06-12T08:18:50.407Z,32.60
2017-06-12T08:21:17.343Z,33.50
2017-06-12T08:23:43.559Z,32.90
2017-06-12T08:26:09.832Z,33.40
2017-06-12T08:28:36.056Z,33.60
2017-06-12T08:31:03.007Z,33.40
2017-06-12T08:33:29.255Z,33.10
2017-06-12T08:35:55.447Z,31.50
2017-06-12T08:38:22.401Z,31.80
2017-06-12T08:40:49.353Z,31.90
2017-06-12T08:43:16.313Z,32.60
2017-06-12T08:45:42.547Z,30.70
2017-06-12T08:48:08.727Z,31.10
2017-06-12T08:50:34.916Z,30.70
2017-06-12T08:53:01.113Z,30.90
2017-06-12T08:55:28.021Z,32.10
2017-06-12T08:57:54.247Z,31.90
2017-06-12T09:00:20.394Z,29.00
2017-06-12T09:02:46.571Z,28.60
2017-06-12T09:05:12.775Z,29.40
2017-06-12T09:07:38.998Z,28.90
2017-06-12T09:10:05.952Z,29.30
2017-06-12T09:12:32.156Z,29.40
2017-06-12T09:14:59.080Z,29.90
2017-06-12T09:17:25.282Z,29.30
2017-06-12T09:19:51.450Z,29.80
2017-06-12T09:22:17.606Z,29.70
2017-06-12T09:24:43.803Z,29.40
2017-06-12T09:27:09.992Z,29.50
2017-06-12T09:29:36.158Z,29.90
2017-06-12T09:32:02.315Z,29.70
2017-06-12T09:34:28.487Z,29.90
2017-06-12T09:36:54.757Z,30.10
2017-06-12T09:39:21.676Z,29.80
2017-06-12T09:41:47.894Z,29.70
2017-06-12T09:44:14.055Z,29.80
2017-06-12T09:46:40.263Z,29.70
2017-06-12T09:49:06.471Z,29.90
2017-06-12T09:51:32.655Z,30.40
2017-06-12T09:53:59.603Z,29.20
2017-06-12T09:56:26.505Z,28.30
2017-06-12T09:58:52.701Z,28.20
2017-06-12T10:01:18.859Z,28.40
2017-06-12T10:03:45.057Z,27.20
2017-06-12T10:06:11.261Z,27.10
2017-06-12T10:08:38.171Z,27.50
2017-06-12T10:11:04.362Z,27.50
2017-06-12T10:13:30.639Z,27.60
2017-06-12T10:15:57.172Z,27.80
2017-06-12T10:18:23.360Z,26.10
2017-06-12T10:20:49.613Z,27.80
2017-06-12T10:23:16.692Z,27.80
2017-06-12T10:25:43.640Z,26.90
2017-06-12T10:28:10.601Z,26.90
2017-06-12T10:30:52.121Z,26.40
2017-06-12T10:33:18.314Z,27.30
2017-06-12T10:35:45.207Z,27.80
2017-06-12T10:38:11.425Z,27.50
2017-06-12T10:40:37.588Z,27.60
2017-06-12T10:43:03.976Z,28.00
2017-06-12T10:45:30.142Z,27.90
2017-06-12T10:47:56.322Z,28.80
2017-06-12T10:50:22.481Z,28.10
2017-06-12T10:52:48.822Z,27.70
2017-06-12T10:55:14.980Z,27.50
2017-06-12T10:57:41.938Z,28.80
2017-06-12T11:00:08.094Z,27.10
2017-06-12T11:02:35.013Z,27.80
2017-06-12T11:05:01.192Z,26.80
2017-06-12T11:07:28.123Z,26.50
2017-06-12T11:09:54.291Z,25.50
2017-06-12T11:12:21.277Z,25.50
2017-06-12T11:14:47.480Z,24.80
2017-06-12T11:17:14.450Z,26.80
2017-06-12T11:19:40.721Z,26.50
2017-06-12T11:22:06.956Z,26.30
2017-06-12T11:24:39.143Z,27.00
2017-06-12T11:27:06.101Z,25.10
2017-06-12T11:29:37.087Z,26.00
2017-06-12T11:32:08.196Z,25.50
2017-06-12T11:34:34.397Z,27.60
2017-06-12T11:37:01.385Z,26.90
2017-06-12T11:39:27.593Z,27.80
2017-06-12T11:41:54.602Z,26.70
2017-06-12T11:44:20.863Z,27.50
2017-06-12T11:46:47.832Z,27.20
2017-06-12T11:49:14.626Z,27.50
2017-06-12T11:51:40.869Z,28.20
2017-06-12T11:54:07.059Z,26.20
2017-06-12T11:56:35.509Z,24.60
2017-06-12T11:59:01.852Z,26.20
2017-06-12T12:01:28.952Z,26.00
2017-06-12T12:03:56.505Z,25.80
2017-06-12T12:06:23.465Z,26.40
2017-06-12T12:08:49.842Z,27.20
2017-06-12T12:13:44.165Z,25.90
2017-06-12T12:16:10.629Z,25.80
2017-06-12T12:18:37.230Z,25.30
2017-06-12T12:21:03.759Z,25.80
2017-06-12T12:23:30.095Z,25.50
2017-06-12T12:25:56.287Z,27.20
2017-06-12T12:28:23.262Z,26.70
2017-06-12T12:30:49.508Z,26.40
2017-06-12T12:33:17.506Z,25.60
2017-06-12T12:35:44.043Z,27.00
2017-06-12T12:38:11.862Z,26.00
2017-06-12T12:40:38.410Z,26.50
2017-06-12T12:43:05.684Z,25.50
2017-06-12T12:45:31.891Z,26.70
2017-06-12T12:47:58.137Z,27.40
2017-06-12T12:50:24.422Z,26.60
2017-06-12T12:52:50.624Z,27.00
2017-06-12T12:55:16.830Z,27.10
2017-06-12T12:57:43.049Z,27.70
2017-06-12T13:00:11.154Z,27.30
2017-06-12T13:02:37.362Z,26.40
2017-06-12T13:05:03.804Z,26.40
2017-06-12T13:07:30.123Z,27.70
2017-06-12T13:09:56.354Z,25.50
2017-06-12T13:12:22.550Z,26.50
2017-06-12T13:14:48.839Z,26.00
2017-06-12T13:17:15.927Z,26.40
2017-06-12T13:19:42.146Z,26.40
2017-06-12T13:22:08.297Z,26.20
2017-06-12T13:24:34.525Z,26.50
2017-06-12T13:27:00.672Z,24.70
2017-06-12T13:29:26.859Z,25.60
2017-06-12T13:31:53.074Z,26.10
2017-06-12T13:34:19.285Z,25.80
2017-06-12T13:36:45.498Z,24.70
2017-06-12T13:39:11.702Z,26.00
2017-06-12T13:41:37.884Z,25.40
2017-06-12T13:44:04.801Z,26.60
2017-06-12T13:46:31.019Z,26.20
2017-06-12T13:48:57.818Z,26.20
2017-06-12T13:51:24.118Z,26.20
2017-06-12T13:53:51.034Z,26.70
2017-06-12T13:56:17.259Z,26.30
2017-06-12T13:58:43.488Z,27.20
2017-06-12T14:01:09.706Z,25.80
2017-06-12T14:03:35.893Z,25.40
2017-06-12T14:06:02.127Z,26.50
2017-06-12T14:08:28.303Z,26.80
2017-06-12T14:10:54.499Z,27.00
2017-06-12T14:13:20.786Z,27.60
2017-06-12T14:15:46.980Z,27.60
2017-06-12T14:18:13.138Z,26.50
2017-06-12T14:20:54.994Z,26.70
2017-06-12T14:23:21.546Z,25.80
2017-06-12T14:25:47.748Z,27.60
2017-06-12T14:28:13.968Z,26.90
2017-06-12T14:30:40.202Z,27.90
2017-06-12T14:33:06.448Z,28.00
2017-06-12T14:35:32.682Z,28.00
2017-06-12T14:37:59.220Z,27.60
2017-06-12T14:40:25.386Z,28.30
2017-06-12T14:42:52.351Z,29.00
2017-06-12T14:45:19.388Z,29.80
2017-06-12T14:47:46.306Z,28.60
2017-06-12T14:50:12.590Z,29.70
2017-06-12T14:52:38.779Z,30.40
2017-06-12T14:55:04.958Z,29.50
2017-06-12T14:57:31.189Z,30.00
2017-06-12T14:59:57.371Z,30.10
2017-06-12T15:02:24.293Z,31.50
2017-06-12T15:04:51.531Z,30.00
2017-06-12T15:07:17.938Z,29.80
2017-06-12T15:09:44.503Z,29.50
2017-06-12T15:12:10.708Z,30.00
2017-06-12T15:14:36.932Z,30.30
2017-06-12T15:17:03.523Z,30.50
2017-06-12T15:19:29.734Z,30.70
2017-06-12T15:21:55.923Z,29.90
2017-06-12T15:24:22.139Z,30.60
2017-06-12T15:26:48.326Z,30.40
2017-06-12T15:29:14.495Z,30.50
2017-06-12T15:31:40.750Z,31.00
2017-06-12T15:34:06.971Z,30.50
2017-06-12T15:36:33.204Z,30.30
2017-06-12T15:38:59.430Z,29.80
2017-06-12T15:41:25.982Z,30.80
2017-06-12T15:43:52.233Z,30.30
2017-06-12T15:46:18.483Z,31.30
2017-06-12T15:48:44.681Z,31.20
2017-06-12T15:51:10.861Z,30.70
2017-06-12T15:53:37.448Z,30.80
2017-06-12T15:56:03.683Z,30.30
2017-06-12T15:58:29.893Z,30.50
2017-06-12T16:00:56.093Z,30.10
2017-06-12T16:03:22.267Z,31.20
2017-06-12T16:05:48.464Z,31.30
2017-06-12T16:08:14.666Z,30.70
2017-06-12T16:10:40.870Z,30.80
2017-06-12T16:13:07.088Z,31.40
2017-06-12T16:15:33.274Z,31.50
2017-06-12T16:18:00.828Z,31.40
2017-06-12T16:20:27.105Z,32.10
2017-06-12T16:22:53.284Z,32.10
2017-06-12T16:25:19.467Z,32.10
2017-06-12T16:27:45.701Z,32.20
2017-06-12T16:30:11.871Z,32.10
2017-06-12T16:32:38.087Z,32.10
2017-06-12T16:35:04.302Z,32.20
2017-06-12T16:37:31.263Z,33.00
2017-06-12T16:39:57.539Z,33.00
2017-06-12T16:42:23.743Z,32.20
2017-06-12T16:44:50.128Z,33.30
2017-06-12T16:47:16.358Z,32.50
2017-06-12T16:49:42.537Z,33.50
2017-06-12T16:52:08.789Z,34.10
2017-06-12T16:54:35.008Z,35.10
2017-06-12T16:57:01.271Z,36.20
2017-06-12T16:59:28.070Z,35.40
2017-06-12T17:01:54.261Z,35.50
2017-06-12T17:04:21.222Z,36.60
2017-06-12T17:06:47.756Z,36.00
2017-06-12T17:09:13.970Z,36.10
2017-06-12T17:11:40.910Z,37.00
2017-06-12T17:14:08.455Z,36.40
2017-06-12T17:16:35.037Z,36.40
2017-06-12T17:19:01.188Z,36.40
2017-06-12T17:21:27.424Z,36.30
2017-06-12T17:23:53.646Z,36.30
2017-06-12T17:26:20.820Z,36.50
2017-06-12T17:28:47.030Z,36.40
2017-06-12T17:31:13.273Z,37.20
2017-06-12T17:33:39.473Z,37.80
2017-06-12T17:36:06.045Z,38.60
2017-06-12T17:38:32.237Z,38.50
2017-06-12T17:40:58.488Z,39.00
2017-06-12T17:43:24.689Z,39.20
2017-06-12T17:45:50.910Z,39.60
2017-06-12T17:48:17.103Z,39.70
2017-06-12T17:50:44.084Z,41.70
2017-06-12T17:53:10.272Z,39.80
2017-06-12T17:55:36.501Z,39.50
2017-06-12T17:58:02.727Z,39.80
2017-06-12T18:00:28.989Z,39.70
2017-06-12T18:02:55.930Z,39.30
2017-06-12T18:05:22.884Z,40.60
2017-06-12T18:07:49.104Z,40.20
2017-06-12T18:10:16.141Z,40.50
2017-06-12T18:12:43.275Z,40.80
2017-06-12T18:15:09.486Z,40.20
2017-06-12T18:17:35.698Z,40.20
2017-06-12T18:20:01.883Z,40.90
2017-06-12T18:22:28.862Z,41.90
2017-06-12T18:24:55.036Z,41.80
2017-06-12T18:27:22.027Z,41.80
2017-06-12T18:29:48.317Z,41.30
2017-06-12T18:32:14.498Z,37.70
2017-06-12T18:34:40.735Z,41.50
2017-06-12T18:37:07.303Z,41.30
2017-06-12T18:39:33.628Z,41.30
2017-06-12T18:41:59.900Z,41.50
2017-06-12T18:44:26.365Z,41.90
2017-06-12T18:46:52.540Z,41.70
2017-06-12T18:49:19.551Z,42.80
2017-06-12T18:51:45.836Z,41.70
2017-06-12T18:54:12.112Z,41.80
2017-06-12T18:56:38.331Z,42.10
2017-06-12T18:59:04.583Z,41.80
2017-06-12T19:01:31.571Z,41.50
2017-06-12T19:03:57.768Z,56.00
2017-06-12T19:06:24.428Z,44.40
2017-06-12T19:08:51.028Z,43.60
2017-06-12T19:11:17.657Z,42.60
2017-06-12T19:13:44.950Z,43.00
2017-06-12T19:16:11.885Z,43.10
2017-06-12T19:18:38.472Z,42.60
2017-06-12T19:21:04.700Z,43.20
2017-06-12T19:23:30.924Z,43.50
2017-06-12T19:25:57.200Z,44.10
2017-06-12T19:28:23.407Z,43.40
2017-06-12T19:30:49.963Z,42.20
2017-06-12T19:33:16.247Z,43.40
2017-06-12T19:35:42.414Z,43.40
2017-06-12T19:38:08.676Z,43.60
2017-06-12T19:40:37.614Z,43.30
2017-06-12T19:43:03.804Z,42.70
2017-06-12T19:45:30.740Z,43.80
2017-06-12T19:47:57.393Z,42.90
2017-06-12T19:50:24.318Z,44.40
2017-06-12T19:52:51.391Z,42.80
2017-06-12T19:55:17.607Z,43.70
2017-06-12T19:57:45.333Z,43.40
2017-06-12T20:00:13.207Z,42.70
2017-06-12T20:02:39.486Z,43.90
2017-06-12T20:05:06.033Z,44.80
2017-06-12T20:07:34.250Z,44.70
2017-06-12T20:10:00.496Z,45.00
2017-06-12T20:12:26.913Z,44.30
2017-06-12T20:14:53.140Z,44.30
2017-06-12T20:19:51.421Z,43.80
2017-06-12T20:22:18.964Z,43.80
2017-06-12T20:24:45.487Z,44.00
2017-06-12T20:27:11.742Z,43.50
2017-06-12T20:29:38.352Z,45.10
2017-06-12T20:32:05.738Z,45.30
2017-06-12T20:34:32.200Z,45.10
2017-06-12T20:36:58.646Z,45.00
2017-06-12T20:39:25.022Z,44.80
2017-06-12T20:41:51.247Z,45.70
2017-06-12T20:44:18.589Z,45.40
2017-06-12T20:46:44.824Z,45.10
2017-06-12T20:49:12.399Z,44.60
2017-06-12T20:51:39.466Z,45.00
2017-06-12T20:54:06.258Z,45.70
2017-06-12T20:56:32.494Z,45.80
2017-06-12T20:59:00.795Z,45.30
2017-06-12T21:01:27.115Z,46.10
2017-06-12T21:03:53.311Z,46.10
2017-06-12T21:06:19.534Z,46.00
2017-06-12T21:08:46.352Z,46.00
2017-06-12T21:11:12.549Z,45.90
2017-06-12T21:13:38.693Z,46.50
2017-06-12T21:16:04.868Z,46.30
2017-06-12T21:18:31.830Z,47.10
2017-06-12T21:20:58.120Z,46.20
2017-06-12T21:23:24.488Z,47.20
2017-06-12T21:25:51.393Z,48.60
2017-06-12T21:28:17.566Z,47.10
2017-06-12T21:30:43.820Z,47.80
2017-06-12T21:33:10.428Z,47.40
2017-06-12T21:35:37.346Z,48.30
2017-06-12T21:38:03.582Z,46.70
2017-06-12T21:40:29.771Z,47.40
2017-06-12T21:42:55.958Z,48.90
2017-06-12T21:45:22.938Z,48.00
2017-06-12T21:47:49.152Z,48.00
2017-06-12T21:50:15.326Z,48.10
2017-06-12T21:52:41.574Z,48.70
2017-06-12T21:55:07.769Z,48.10
2017-06-12T21:57:33.963Z,48.10
2017-06-12T22:00:00.228Z,47.20
2017-06-12T22:02:26.420Z,47.10
2017-06-12T22:04:52.670Z,46.90
2017-06-12T22:07:20.138Z,48.00
2017-06-12T22:09:46.356Z,48.40
2017-06-12T22:12:12.544Z,47.90
2017-06-12T22:14:39.484Z,48.70
2017-06-12T22:17:06.434Z,48.40
2017-06-12T22:19:33.367Z,48.10
2017-06-12T22:21:59.560Z,48.20
2017-06-12T22:24:25.838Z,48.30
2017-06-12T22:26:52.782Z,47.90
2017-06-12T22:29:19.679Z,48.70
2017-06-12T22:31:45.888Z,47.90
2017-06-12T22:34:12.585Z,48.00
2017-06-12T22:36:39.654Z,48.80
2017-06-12T22:39:06.600Z,49.30
2017-06-12T22:41:33.616Z,49.70
2017-06-12T22:43:59.799Z,48.80
2017-06-12T22:46:26.013Z,49.40
2017-06-12T22:48:52.220Z,49.50
2017-06-12T22:51:18.471Z,49.10
2017-06-12T22:53:44.712Z,49.50
2017-06-12T22:56:10.999Z,49.60
2017-06-12T22:58:37.178Z,48.90
2017-06-12T23:01:03.457Z,48.80
2017-06-12T23:03:29.663Z,49.20
2017-06-12T23:05:55.847Z,49.70
2017-06-12T23:08:22.436Z,49.40
2017-06-12T23:10:48.604Z,49.20
2017-06-12T23:13:15.610Z,50.30
2017-06-12T23:15:42.175Z,49.70
2017-06-12T23:18:09.802Z,48.80
2017-06-12T23:20:36.227Z,48.80
2017-06-12T23:23:02.592Z,50.00
2017-06-12T23:25:28.811Z,50.10
2017-06-12T23:27:55.027Z,50.60
2017-06-12T23:30:21.773Z,49.90
2017-06-12T23:32:47.930Z,49.70
2017-06-12T23:35:16.064Z,50.30
2017-06-12T23:37:43.521Z,48.70
2017-06-12T23:40:09.699Z,48.70
2017-06-12T23:42:36.341Z,49.00
2017-06-12T23:45:03.290Z,49.40
2017-06-12T23:47:29.499Z,48.80
2017-06-12T23:49:56.427Z,50.10
2017-06-12T23:52:22.632Z,48.70
2017-06-12T23:54:48.836Z,49.10
2017-06-12T23:57:15.003Z,49.30
2017-06-12T23:59:41.208Z,49.30
